Aérodrome :
LOGIN :

S'inscrire | Disclaimer

   EN    FR    IT 

 










Légende :    VFR   VFR Marginal   IFR   IFR Intensif   IFR Très Intensif
Visi : 
Plafond : 
>= 8 km
>= 3000ft
5 à 8 km
1000 à 3000 ft
1500m à 5 km
500 à 1000 ft
800 à 1500m
200 à 500 ft
< 800m
< 200 ft
Symboles :   Orages  Brouillard  Fortes neiges  Fortes précipitations  Vent > 20 kt
SIGMETs :   Divers  Orages  Givrage  Turbulence  Onde Orograph.  Cendres Volcan.






- Altitude de l'aérodrome : 538 ft
- Code IATA : TNF


LFPN - Toussus Le Noble

DERNIER METAR :
  • 280730Z AUTO 32016KT 9999 BKN014 OVC019 04/02 Q1000 TEMPO 4000 -SHRA BKN008 BKN020TCU BECMG 33015G28KT

METARs EXPIRÉS :
  • 280700Z AUTO 32015KT 9999 OVC011 04/02 Q1000 TEMPO 4000 -SHRA BKN008 BKN020TCU BECMG 33015G28KT
  • 280630Z AUTO 31016KT 9999 -RA OVC008/// ///TCU 03/02 Q1000 TEMPO 4000 -SHRA BECMG 33015G28KT
  • 280600Z AUTO 30015KT 9999 OVC008/// ///TCU 03/02 Q0999 TEMPO 4000 -SHRA BKN011 BKN020TCU BECMG 33015G28KT
  • 280530Z AUTO 31015KT 9999 OVC009/// ///TCU 04/02 Q0999 TEMPO 4000 -SHRA BKN011 BKN020TCU BECMG 33015G28KT
  • 280500Z AUTO 31016KT 9999 OVC011 04/02 Q0999

TAF AMD TAF LFPN
Valide du 28 à 06h jusqu'au 28 à 15h UTC


280613Z 2806/2815 33015G28KT 9999 BKN016
TEMPO 2806/2815 4000 -SHRA BKN008 BKN020TCU
ATIS : +33 1 39 56 54 70



MET'MAP, la Météo Aéronautique d'un coup d'oeil ! - Copyright ORBIFLY Décembre 2007 - Disclaimer

ORBIFLY MET'MAP TEAM :

Programmation & Développement : Alexandra Zaïnal
Sur une idée originale de : Baudouin d'Aumeries
Assistance à la programmation : Marc-Olivier Méhu
Soutien technique & logistique : Manuel Goepfert

Contact : metmap@orbifly.com




SOURCES & CREDITS :

   NOAA